createdAt,value
2018-06-28T00:00:32.435Z,0.00
2018-06-28T00:01:32.453Z,0.00
2018-06-28T00:02:32.478Z,0.00
2018-06-28T00:03:32.497Z,0.00
2018-06-28T00:04:32.521Z,0.00
2018-06-28T00:05:32.538Z,0.00
2018-06-28T00:06:32.560Z,0.00
2018-06-28T00:07:32.583Z,0.00
2018-06-28T00:08:32.605Z,0.00
2018-06-28T00:09:32.629Z,0.00
2018-06-28T00:10:32.647Z,0.00
2018-06-28T00:11:32.670Z,0.00
2018-06-28T00:12:32.687Z,0.00
2018-06-28T00:13:32.712Z,0.00
2018-06-28T00:14:32.735Z,0.00
2018-06-28T00:15:32.751Z,0.00
2018-06-28T00:16:32.773Z,0.00
2018-06-28T00:17:32.798Z,0.00
2018-06-28T00:18:32.818Z,0.00
2018-06-28T00:19:32.839Z,0.00
2018-06-28T00:20:32.860Z,0.00
2018-06-28T00:21:32.878Z,0.00
2018-06-28T00:22:32.905Z,0.00
2018-06-28T00:23:32.921Z,0.00
2018-06-28T00:24:32.941Z,0.00
2018-06-28T00:25:32.965Z,0.00
2018-06-28T00:26:32.984Z,0.00
2018-06-28T00:27:33.008Z,0.00
2018-06-28T00:28:33.028Z,0.00
2018-06-28T00:29:33.049Z,0.00
2018-06-28T00:30:33.070Z,0.00
2018-06-28T00:31:33.090Z,0.00
2018-06-28T00:32:33.111Z,0.00
2018-06-28T00:33:33.133Z,0.00
2018-06-28T00:34:33.153Z,0.00
2018-06-28T00:35:33.177Z,0.00
2018-06-28T00:36:33.198Z,0.00
2018-06-28T00:37:33.216Z,0.00
2018-06-28T00:38:33.240Z,0.00
2018-06-28T00:39:33.260Z,0.00
2018-06-28T00:40:33.281Z,0.00
2018-06-28T00:41:33.300Z,0.00
2018-06-28T00:42:33.324Z,0.00
2018-06-28T00:43:33.344Z,0.00
2018-06-28T00:44:33.363Z,0.00
2018-06-28T00:45:33.385Z,0.00
2018-06-28T00:46:33.407Z,0.00
2018-06-28T00:47:33.427Z,0.00
2018-06-28T00:48:33.449Z,0.00
2018-06-28T00:49:33.469Z,0.00
2018-06-28T00:50:33.494Z,0.00
2018-06-28T00:51:33.511Z,0.00
2018-06-28T00:52:33.531Z,0.00
2018-06-28T00:53:33.556Z,0.00
2018-06-28T00:54:33.575Z,0.00
2018-06-28T00:55:33.598Z,0.00
2018-06-28T00:56:33.615Z,0.00
2018-06-28T00:57:33.638Z,0.00
2018-06-28T00:58:33.657Z,0.00
2018-06-28T00:59:33.684Z,0.00
2018-06-28T01:00:33.702Z,0.00
2018-06-28T01:01:33.721Z,0.00
2018-06-28T01:02:33.744Z,0.00
2018-06-28T01:03:33.763Z,0.00
2018-06-28T01:04:33.786Z,0.00
2018-06-28T01:05:33.807Z,0.00
2018-06-28T01:06:33.826Z,0.00
2018-06-28T01:07:33.846Z,0.00
2018-06-28T01:08:33.868Z,0.00
2018-06-28T01:09:33.890Z,0.00
2018-06-28T01:10:33.911Z,0.00
2018-06-28T01:11:33.932Z,0.00
2018-06-28T01:12:33.954Z,0.00
2018-06-28T01:13:33.971Z,0.00
2018-06-28T01:14:33.996Z,0.00
2018-06-28T01:15:34.017Z,0.00
2018-06-28T01:16:34.034Z,0.00
2018-06-28T01:17:34.055Z,0.00
2018-06-28T01:18:34.078Z,0.00
2018-06-28T01:19:34.099Z,0.00
2018-06-28T01:20:34.118Z,0.00
2018-06-28T01:21:34.142Z,0.00
2018-06-28T01:22:34.164Z,0.00
2018-06-28T01:23:34.181Z,0.00
2018-06-28T01:24:34.205Z,0.00
2018-06-28T01:25:34.224Z,0.00
2018-06-28T01:26:34.244Z,0.00
2018-06-28T01:27:34.265Z,0.00
2018-06-28T01:28:34.285Z,0.00
2018-06-28T01:29:34.310Z,0.00
2018-06-28T01:30:34.332Z,0.00
2018-06-28T01:31:34.349Z,0.00
2018-06-28T01:32:34.369Z,0.00
2018-06-28T01:33:34.393Z,0.00
2018-06-28T01:34:34.411Z,0.00
2018-06-28T01:35:34.433Z,0.00
2018-06-28T01:36:34.455Z,0.00
2018-06-28T01:37:34.476Z,0.00
2018-06-28T01:38:34.498Z,0.00
2018-06-28T01:39:34.519Z,0.00
2018-06-28T01:40:34.540Z,0.00
2018-06-28T01:41:34.557Z,0.00
2018-06-28T01:42:34.580Z,0.00
2018-06-28T01:43:34.600Z,0.00
2018-06-28T01:44:34.620Z,0.00
2018-06-28T01:45:34.641Z,0.00
2018-06-28T01:46:34.665Z,0.00
2018-06-28T01:47:34.685Z,0.00
2018-06-28T01:48:34.704Z,0.00
2018-06-28T01:49:34.723Z,0.00
2018-06-28T01:50:34.747Z,0.00
2018-06-28T01:51:34.766Z,0.00
2018-06-28T01:52:34.789Z,0.00
2018-06-28T01:53:34.808Z,0.00
2018-06-28T01:54:34.828Z,0.00
2018-06-28T01:55:34.849Z,0.00
2018-06-28T01:56:34.872Z,0.00
2018-06-28T01:57:34.891Z,0.00
2018-06-28T01:58:34.911Z,0.00
2018-06-28T01:59:34.932Z,0.00
2018-06-28T02:00:34.956Z,0.00
2018-06-28T02:01:34.975Z,0.00
2018-06-28T02:02:34.995Z,0.00
2018-06-28T02:03:35.019Z,0.00
2018-06-28T02:04:35.036Z,0.00
2018-06-28T02:05:35.059Z,0.00
2018-06-28T02:06:35.081Z,0.00
2018-06-28T02:07:35.099Z,0.00
2018-06-28T02:08:35.121Z,0.00
2018-06-28T02:09:35.140Z,0.00
2018-06-28T02:10:35.160Z,0.00
2018-06-28T02:11:35.182Z,0.00
2018-06-28T02:12:35.202Z,0.00
2018-06-28T02:13:35.224Z,0.00
2018-06-28T02:14:35.245Z,0.00
2018-06-28T02:15:35.266Z,0.00
2018-06-28T02:16:35.292Z,0.00
2018-06-28T02:17:35.308Z,0.00
2018-06-28T02:18:35.328Z,0.00
2018-06-28T02:19:35.356Z,0.00
2018-06-28T02:20:35.368Z,0.00
2018-06-28T02:21:35.395Z,0.00
2018-06-28T02:22:35.410Z,0.00
2018-06-28T02:23:35.431Z,0.00
2018-06-28T02:24:35.501Z,0.00
2018-06-28T02:25:35.479Z,0.00
2018-06-28T02:26:35.504Z,0.00
2018-06-28T02:27:35.521Z,0.00
2018-06-28T02:28:35.537Z,0.00
2018-06-28T02:29:35.557Z,0.00
2018-06-28T02:30:35.580Z,0.00
2018-06-28T02:31:35.597Z,0.00
2018-06-28T02:32:35.619Z,0.00
2018-06-28T02:33:35.692Z,0.00
2018-06-28T02:34:35.659Z,0.00
2018-06-28T02:35:35.680Z,0.00
2018-06-28T02:36:35.700Z,0.00
2018-06-28T02:37:35.723Z,0.00
2018-06-28T02:38:35.754Z,0.00
2018-06-28T02:39:35.763Z,0.00
2018-06-28T02:40:35.786Z,0.00
2018-06-28T02:41:35.807Z,0.00
2018-06-28T02:42:35.834Z,0.00
2018-06-28T02:43:35.848Z,0.00
2018-06-28T02:44:35.866Z,0.00
2018-06-28T02:45:35.886Z,0.00
2018-06-28T02:46:35.909Z,0.00
2018-06-28T02:47:35.927Z,0.00
2018-06-28T02:48:35.948Z,0.00
2018-06-28T02:49:35.971Z,0.00
2018-06-28T02:50:35.991Z,0.00
2018-06-28T02:51:36.011Z,0.00
2018-06-28T02:52:36.033Z,0.00
2018-06-28T02:53:36.055Z,0.00
2018-06-28T02:54:36.075Z,0.00
2018-06-28T02:55:36.093Z,0.00
2018-06-28T02:56:36.114Z,0.00
2018-06-28T02:57:36.139Z,0.00
2018-06-28T02:58:36.155Z,0.00
2018-06-28T02:59:36.177Z,0.00
2018-06-28T03:00:36.196Z,0.00
2018-06-28T03:01:36.217Z,0.00
2018-06-28T03:02:36.240Z,0.00
2018-06-28T03:03:36.266Z,0.00
2018-06-28T03:04:36.279Z,0.00
2018-06-28T03:05:36.299Z,0.00
2018-06-28T03:06:36.321Z,0.00
2018-06-28T03:07:36.342Z,0.00
2018-06-28T03:08:36.363Z,0.00
2018-06-28T03:09:36.385Z,0.00
2018-06-28T03:10:36.406Z,0.00
2018-06-28T03:11:36.426Z,5.63
2018-06-28T03:12:36.444Z,5.63
2018-06-28T03:13:36.465Z,5.63
2018-06-28T03:14:36.487Z,5.63
2018-06-28T03:15:36.506Z,5.63
2018-06-28T03:16:36.525Z,5.63
2018-06-28T03:17:36.550Z,5.63
2018-06-28T03:18:36.567Z,5.63
2018-06-28T03:19:36.588Z,5.63
2018-06-28T03:20:36.611Z,5.63
2018-06-28T03:21:36.629Z,5.63
2018-06-28T03:22:36.652Z,11.25
2018-06-28T03:23:36.675Z,11.25
2018-06-28T03:24:36.690Z,11.25
2018-06-28T03:25:36.711Z,11.25
2018-06-28T03:26:36.734Z,11.25
2018-06-28T03:27:36.753Z,11.25
2018-06-28T03:28:36.772Z,11.25
2018-06-28T03:29:36.795Z,16.88
2018-06-28T03:30:36.818Z,16.88
2018-06-28T03:31:36.835Z,16.88
2018-06-28T03:32:36.858Z,16.88
2018-06-28T03:33:36.875Z,16.88
2018-06-28T03:34:36.896Z,16.88
2018-06-28T03:35:36.917Z,16.88
2018-06-28T03:36:36.941Z,22.50
2018-06-28T03:37:36.983Z,22.50
2018-06-28T03:38:36.980Z,22.50
2018-06-28T03:39:37.002Z,22.50
2018-06-28T03:40:37.019Z,22.50
2018-06-28T03:41:37.043Z,22.50
2018-06-28T03:42:37.067Z,28.13
2018-06-28T03:43:37.084Z,28.13
2018-06-28T03:44:37.102Z,28.13
2018-06-28T03:45:37.125Z,28.13
2018-06-28T03:46:37.143Z,28.13
2018-06-28T03:47:37.163Z,28.13
2018-06-28T03:48:37.183Z,33.75
2018-06-28T03:49:37.206Z,33.75
2018-06-28T03:50:37.225Z,33.75
2018-06-28T03:51:37.245Z,33.75
2018-06-28T03:52:37.269Z,33.75
2018-06-28T03:53:37.292Z,33.75
2018-06-28T03:54:37.307Z,39.38
2018-06-28T03:55:37.328Z,39.38
2018-06-28T03:56:37.351Z,39.38
2018-06-28T03:57:37.369Z,39.38
2018-06-28T03:58:37.392Z,39.38
2018-06-28T03:59:37.412Z,39.38
2018-06-28T04:00:37.434Z,45.00
2018-06-28T04:01:37.452Z,45.00
2018-06-28T04:02:37.472Z,45.00
2018-06-28T04:03:37.500Z,45.00
2018-06-28T04:04:37.514Z,45.00
2018-06-28T04:05:37.536Z,45.00
2018-06-28T04:06:37.624Z,50.63
2018-06-28T04:07:37.578Z,50.63
2018-06-28T04:08:37.598Z,50.63
2018-06-28T04:09:37.617Z,50.63
2018-06-28T04:10:37.636Z,50.63
2018-06-28T04:11:37.660Z,56.25
2018-06-28T04:12:37.678Z,56.25
2018-06-28T04:13:37.698Z,56.25
2018-06-28T04:14:37.719Z,56.25
2018-06-28T04:15:37.743Z,56.25
2018-06-28T04:16:37.905Z,56.25
2018-06-28T04:17:37.782Z,61.88
2018-06-28T04:18:37.804Z,61.88
2018-06-28T04:19:37.822Z,61.88
2018-06-28T04:20:37.844Z,61.88
2018-06-28T04:21:37.868Z,61.88
2018-06-28T04:22:37.887Z,61.88
2018-06-28T04:23:37.905Z,61.88
2018-06-28T04:24:37.927Z,67.50
2018-06-28T04:25:37.949Z,67.50
2018-06-28T04:26:37.968Z,67.50
2018-06-28T04:27:37.989Z,67.50
2018-06-28T04:28:38.009Z,67.50
2018-06-28T04:29:38.029Z,67.50
2018-06-28T04:30:38.053Z,73.13
2018-06-28T04:31:38.073Z,73.13
2018-06-28T04:32:38.092Z,73.13
2018-06-28T04:33:38.113Z,73.13
2018-06-28T04:34:38.138Z,73.13
2018-06-28T04:35:38.153Z,73.13
2018-06-28T04:36:38.173Z,78.75
2018-06-28T04:37:38.196Z,78.75
2018-06-28T04:38:38.215Z,78.75
2018-06-28T04:39:38.239Z,78.75
2018-06-28T04:40:38.257Z,84.38
2018-06-28T04:41:38.279Z,90.00
2018-06-28T04:42:38.298Z,90.00
2018-06-28T04:43:38.319Z,84.38
2018-06-28T04:44:38.341Z,84.38
2018-06-28T04:45:38.361Z,84.38
2018-06-28T04:46:38.382Z,84.38
2018-06-28T04:47:38.406Z,84.38
2018-06-28T04:48:38.422Z,90.00
2018-06-28T04:49:38.449Z,90.00
2018-06-28T04:50:38.464Z,90.00
2018-06-28T04:51:38.488Z,95.63
2018-06-28T04:52:38.514Z,106.88
2018-06-28T04:53:38.529Z,118.13
2018-06-28T04:54:38.551Z,129.38
2018-06-28T04:55:38.575Z,123.75
2018-06-28T04:56:38.589Z,129.38
2018-06-28T04:57:38.609Z,129.38
2018-06-28T04:58:38.630Z,129.38
2018-06-28T04:59:38.652Z,129.38
2018-06-28T05:00:38.675Z,129.38
2018-06-28T05:01:38.695Z,135.00
2018-06-28T05:02:38.714Z,140.63
2018-06-28T05:03:38.739Z,140.63
2018-06-28T05:04:38.759Z,140.63
2018-06-28T05:05:38.777Z,146.25
2018-06-28T05:06:38.800Z,140.63
2018-06-28T05:07:38.824Z,140.63
2018-06-28T05:08:38.845Z,140.63
2018-06-28T05:09:38.861Z,140.63
2018-06-28T05:10:38.883Z,146.25
2018-06-28T05:11:38.905Z,146.25
2018-06-28T05:12:38.925Z,151.88
2018-06-28T05:13:38.948Z,146.25
2018-06-28T05:14:38.971Z,146.25
2018-06-28T05:15:38.990Z,146.25
2018-06-28T05:16:39.011Z,146.25
2018-06-28T05:17:39.034Z,151.88
2018-06-28T05:18:39.055Z,151.88
2018-06-28T05:19:39.080Z,151.88
2018-06-28T05:20:39.099Z,151.88
2018-06-28T05:21:39.121Z,157.50
2018-06-28T05:22:39.140Z,157.50
2018-06-28T05:23:39.164Z,157.50
2018-06-28T05:24:39.185Z,157.50
2018-06-28T05:25:39.209Z,163.13
2018-06-28T05:26:39.229Z,163.13
2018-06-28T05:27:39.251Z,163.13
2018-06-28T05:28:39.277Z,168.75
2018-06-28T05:29:39.295Z,168.75
2018-06-28T05:30:39.319Z,168.75
2018-06-28T05:31:39.341Z,174.38
2018-06-28T05:32:39.360Z,174.38
2018-06-28T05:33:39.385Z,180.00
2018-06-28T05:34:39.521Z,180.00
2018-06-28T05:35:39.426Z,185.63
2018-06-28T05:36:39.452Z,185.63
2018-06-28T05:37:39.475Z,191.25
2018-06-28T05:38:39.496Z,191.25
2018-06-28T05:39:39.515Z,191.25
2018-06-28T05:40:39.540Z,196.88
2018-06-28T05:41:39.563Z,202.50
2018-06-28T05:42:39.583Z,202.50
2018-06-28T05:43:39.607Z,208.13
2018-06-28T05:44:39.627Z,208.13
2018-06-28T05:45:39.654Z,208.13
2018-06-28T05:46:39.674Z,213.75
2018-06-28T05:47:39.697Z,213.75
2018-06-28T05:48:39.720Z,219.38
2018-06-28T05:49:39.747Z,219.38
2018-06-28T05:50:39.768Z,225.00
2018-06-28T05:51:39.790Z,230.63
2018-06-28T05:52:39.813Z,241.88
2018-06-28T05:53:39.834Z,241.88
2018-06-28T05:54:39.857Z,247.50
2018-06-28T05:55:39.885Z,253.13
2018-06-28T05:56:39.904Z,258.75
2018-06-28T05:57:39.929Z,264.38
2018-06-28T05:58:39.954Z,264.38
2018-06-28T05:59:39.975Z,264.38
2018-06-28T06:00:39.997Z,264.38
2018-06-28T06:01:40.022Z,264.38
2018-06-28T06:02:40.146Z,270.00
2018-06-28T06:03:40.071Z,270.00
2018-06-28T06:04:40.093Z,275.63
2018-06-28T06:05:40.117Z,275.63
2018-06-28T06:06:40.145Z,281.25
2018-06-28T06:07:40.164Z,281.25
2018-06-28T06:08:40.187Z,286.88
2018-06-28T06:09:40.213Z,292.50
2018-06-28T06:10:40.235Z,303.75
2018-06-28T06:11:40.261Z,303.75
2018-06-28T06:12:40.288Z,309.38
2018-06-28T06:13:40.310Z,320.63
2018-06-28T06:14:40.335Z,326.25
2018-06-28T06:15:40.359Z,337.50
2018-06-28T06:16:40.381Z,354.38
2018-06-28T06:17:40.407Z,360.00
2018-06-28T06:18:40.429Z,376.88
2018-06-28T06:19:40.456Z,393.75
2018-06-28T06:20:40.478Z,416.25
2018-06-28T06:21:40.504Z,450.00
2018-06-28T06:22:40.529Z,489.38
2018-06-28T06:23:40.551Z,551.25
2018-06-28T06:24:40.579Z,646.88
2018-06-28T06:25:40.604Z,787.50
2018-06-28T06:26:40.625Z,900.00
2018-06-28T06:27:40.656Z,911.25
2018-06-28T06:28:40.677Z,900.00
2018-06-28T06:29:40.731Z,900.00
2018-06-28T06:30:40.728Z,922.50
2018-06-28T06:31:40.751Z,978.75
2018-06-28T06:32:40.778Z,1063.13
2018-06-28T06:33:40.800Z,1158.75
2018-06-28T06:34:40.829Z,1316.25
2018-06-28T06:35:40.853Z,1513.13
2018-06-28T06:36:40.876Z,1681.88
2018-06-28T06:37:40.900Z,1777.50
2018-06-28T06:38:40.931Z,1873.13
2018-06-28T06:39:40.953Z,1946.25
2018-06-28T06:40:40.976Z,1968.75
2018-06-28T06:41:41.003Z,1783.13
2018-06-28T06:42:41.032Z,1642.50
2018-06-28T06:43:41.059Z,1530.00
2018-06-28T06:44:41.083Z,1434.38
2018-06-28T06:45:41.107Z,1344.38
2018-06-28T06:46:41.137Z,1276.88
2018-06-28T06:47:41.162Z,1243.13
2018-06-28T06:48:41.219Z,1203.75
2018-06-28T06:49:41.215Z,1136.25
2018-06-28T06:50:41.239Z,1063.13
2018-06-28T06:51:41.266Z,1040.63
2018-06-28T06:52:41.290Z,1096.88
2018-06-28T06:53:41.319Z,1130.63
2018-06-28T06:54:41.348Z,1046.25
2018-06-28T06:55:41.370Z,950.63
2018-06-28T06:56:41.395Z,950.63
2018-06-28T06:57:41.428Z,984.38
2018-06-28T06:58:41.452Z,984.38
2018-06-28T06:59:41.479Z,967.50
2018-06-28T07:00:41.504Z,933.75
2018-06-28T07:01:41.531Z,866.25
2018-06-28T07:02:41.558Z,838.13
2018-06-28T07:03:41.584Z,849.38
2018-06-28T07:04:41.611Z,883.13
2018-06-28T07:05:41.640Z,900.00
2018-06-28T07:06:41.667Z,883.13
2018-06-28T07:07:41.693Z,832.50
2018-06-28T07:08:41.721Z,821.25
2018-06-28T07:09:41.748Z,821.25
2018-06-28T07:10:41.775Z,815.63
2018-06-28T07:11:41.802Z,815.63
2018-06-28T07:12:41.833Z,815.63
2018-06-28T07:13:41.857Z,826.88
2018-06-28T07:14:41.943Z,798.75
2018-06-28T07:15:41.913Z,793.13
2018-06-28T07:16:42.062Z,832.50
2018-06-28T07:17:41.969Z,810.00
2018-06-28T07:18:41.999Z,736.88
2018-06-28T07:19:42.025Z,714.38
2018-06-28T07:20:42.054Z,720.00
2018-06-28T07:21:42.081Z,714.38
2018-06-28T07:22:42.114Z,697.50
2018-06-28T07:23:42.139Z,714.38
2018-06-28T07:24:42.168Z,725.63
2018-06-28T07:25:42.195Z,703.13
2018-06-28T07:26:42.226Z,675.00
2018-06-28T07:27:42.250Z,652.50
2018-06-28T07:28:42.355Z,658.13
2018-06-28T07:29:42.308Z,658.13
2018-06-28T07:30:42.339Z,652.50
2018-06-28T07:31:42.369Z,646.88
2018-06-28T07:32:42.396Z,641.25
2018-06-28T07:33:42.423Z,624.38
2018-06-28T07:34:42.456Z,601.88
2018-06-28T07:35:42.485Z,601.88
2018-06-28T07:36:42.514Z,607.50
2018-06-28T07:37:42.686Z,601.88
2018-06-28T07:38:42.571Z,596.25
2018-06-28T07:39:42.600Z,590.63
2018-06-28T07:40:42.632Z,596.25
2018-06-28T07:41:42.657Z,585.00
2018-06-28T07:42:42.692Z,573.75
2018-06-28T07:43:42.717Z,568.13
2018-06-28T07:44:42.746Z,573.75
2018-06-28T07:45:42.779Z,573.75
2018-06-28T07:46:42.867Z,573.75
2018-06-28T07:47:42.835Z,568.13
2018-06-28T07:48:42.868Z,556.88
2018-06-28T07:50:42.928Z,568.13
2018-06-28T07:51:45.585Z,562.50
2018-06-28T07:52:42.988Z,573.75
2018-06-28T07:53:43.020Z,573.75
2018-06-28T07:54:43.048Z,585.00
2018-06-28T07:55:43.079Z,596.25
2018-06-28T07:56:43.114Z,579.38
2018-06-28T07:57:43.141Z,562.50
2018-06-28T07:58:43.172Z,579.38
2018-06-28T07:59:43.204Z,607.50
2018-06-28T08:00:43.241Z,635.63
2018-06-28T08:01:43.269Z,714.38
2018-06-28T08:02:43.367Z,1035.00
2018-06-28T08:03:43.328Z,1445.63
2018-06-28T08:04:43.366Z,1636.88
2018-06-28T08:05:43.397Z,1726.88
2018-06-28T08:06:43.429Z,1726.88
2018-06-28T08:07:43.457Z,1648.13
2018-06-28T08:08:43.490Z,1625.63
2018-06-28T08:09:43.517Z,1636.88
2018-06-28T08:10:43.546Z,1693.13
2018-06-28T08:11:43.578Z,1721.25
2018-06-28T08:12:43.610Z,1749.38
2018-06-28T08:13:43.641Z,1788.75
2018-06-28T08:14:43.674Z,1828.13
2018-06-28T08:15:43.708Z,1856.25
2018-06-28T08:16:43.733Z,1906.88
2018-06-28T08:17:43.766Z,1878.75
2018-06-28T08:18:43.794Z,1861.88
2018-06-28T08:19:43.825Z,1856.25
2018-06-28T08:20:43.859Z,1895.63
2018-06-28T08:21:43.887Z,1918.13
2018-06-28T08:22:43.923Z,1906.88
2018-06-28T08:23:43.953Z,1940.63
2018-06-28T08:24:43.981Z,1940.63
2018-06-28T08:25:44.015Z,1974.38
2018-06-28T08:26:44.049Z,1940.63
2018-06-28T08:27:44.075Z,1951.88
2018-06-28T08:28:44.106Z,2030.63
2018-06-28T08:29:44.139Z,2013.75
2018-06-28T08:31:41.827Z,2171.25
2018-06-28T08:32:41.860Z,2182.50
2018-06-28T08:33:41.892Z,2171.25
2018-06-28T08:34:41.923Z,2171.25
2018-06-28T08:35:41.954Z,2148.75
2018-06-28T08:36:41.988Z,2058.75
2018-06-28T08:37:42.020Z,2070.00
2018-06-28T08:38:42.055Z,2103.75
2018-06-28T08:39:42.084Z,2109.38
2018-06-28T08:40:42.117Z,2115.00
2018-06-28T08:41:42.152Z,2165.63
2018-06-28T08:42:42.184Z,528.75
2018-06-28T08:43:42.218Z,489.38
2018-06-28T08:44:42.248Z,2008.13
2018-06-28T08:45:42.280Z,2109.38
2018-06-28T08:46:42.313Z,2182.50
2018-06-28T08:47:42.348Z,2233.13
2018-06-28T08:48:42.381Z,1822.50
2018-06-28T08:49:42.411Z,2250.00
2018-06-28T08:50:42.446Z,2210.63
2018-06-28T08:51:42.528Z,2053.13
2018-06-28T08:52:42.514Z,2199.38
2018-06-28T08:53:42.551Z,2244.38
2018-06-28T08:54:42.578Z,2266.88
2018-06-28T08:55:42.607Z,2233.13
2018-06-28T08:56:42.639Z,2120.63
2018-06-28T08:57:42.769Z,2154.38
2018-06-28T08:58:42.708Z,2193.75
2018-06-28T08:59:42.742Z,2227.50
2018-06-28T09:00:42.776Z,2171.25
2018-06-28T09:01:42.803Z,2182.50
2018-06-28T09:02:42.840Z,2165.63
2018-06-28T09:03:42.875Z,1485.00
2018-06-28T09:04:42.908Z,1642.50
2018-06-28T09:05:42.947Z,2160.00
2018-06-28T09:06:43.018Z,2148.75
2018-06-28T09:07:43.002Z,455.63
2018-06-28T09:08:43.035Z,871.88
2018-06-28T09:09:43.069Z,2115.00
2018-06-28T09:10:43.103Z,2047.50
2018-06-28T09:11:43.134Z,2030.63
2018-06-28T09:12:43.774Z,2041.88
2018-06-28T09:13:43.200Z,1980.00
2018-06-28T09:14:43.233Z,2008.13
2018-06-28T09:15:43.266Z,1996.88
2018-06-28T09:16:43.298Z,2002.50
2018-06-28T09:17:43.329Z,1935.00
2018-06-28T09:18:43.368Z,1878.75
2018-06-28T09:19:43.397Z,1912.50
2018-06-28T09:20:43.431Z,1912.50
2018-06-28T09:21:43.461Z,1940.63
2018-06-28T09:22:43.584Z,1985.63
2018-06-28T09:23:43.530Z,2008.13
2018-06-28T09:24:43.563Z,2047.50
2018-06-28T09:25:43.593Z,2058.75
2018-06-28T09:26:43.628Z,2070.00
2018-06-28T09:27:43.661Z,2098.13
2018-06-28T09:28:43.694Z,2081.25
2018-06-28T09:29:43.725Z,2098.13
2018-06-28T09:30:43.756Z,2098.13
2018-06-28T09:31:43.788Z,2098.13
2018-06-28T09:32:43.822Z,2103.75
2018-06-28T09:33:43.856Z,2109.38
2018-06-28T09:34:43.891Z,2126.25
2018-06-28T09:35:43.922Z,2137.50
2018-06-28T09:36:43.951Z,2176.88
2018-06-28T09:37:43.986Z,2216.25
2018-06-28T09:38:44.017Z,2216.25
2018-06-28T09:39:44.048Z,2148.75
2018-06-28T09:40:44.081Z,2109.38
2018-06-28T09:41:44.112Z,2053.13
2018-06-28T09:42:44.146Z,2025.00
2018-06-28T09:43:44.177Z,2013.75
2018-06-28T09:44:44.213Z,2064.38
2018-06-28T09:45:44.245Z,2070.00
2018-06-28T09:46:44.276Z,2030.63
2018-06-28T09:47:44.307Z,2019.38
2018-06-28T09:48:44.356Z,2041.88
2018-06-28T09:49:44.378Z,2002.50
2018-06-28T09:50:44.405Z,2013.75
2018-06-28T09:51:44.441Z,2030.63
2018-06-28T09:52:44.473Z,1951.88
2018-06-28T09:53:44.510Z,1940.63
2018-06-28T09:54:44.562Z,1957.50
2018-06-28T09:55:44.568Z,1951.88
2018-06-28T09:56:44.602Z,1974.38
2018-06-28T09:57:44.637Z,1951.88
2018-06-28T09:58:44.670Z,1923.75
2018-06-28T09:59:44.704Z,1918.13
2018-06-28T10:00:44.732Z,1929.38
2018-06-28T10:01:44.764Z,1867.50
2018-06-28T10:02:44.802Z,1788.75
2018-06-28T10:03:44.829Z,1828.13
2018-06-28T10:04:44.867Z,1901.25
2018-06-28T10:05:44.896Z,1946.25
2018-06-28T10:06:44.995Z,1935.00
2018-06-28T10:07:44.961Z,1867.50
2018-06-28T10:08:44.996Z,1800.00
2018-06-28T10:09:45.032Z,1794.38
2018-06-28T10:10:45.059Z,1665.00
2018-06-28T10:11:45.094Z,1518.75
2018-06-28T10:12:45.128Z,1265.63
2018-06-28T10:13:45.159Z,1102.50
2018-06-28T10:14:45.243Z,990.00
2018-06-28T10:15:45.223Z,894.38
2018-06-28T10:16:45.256Z,675.00
2018-06-28T10:17:45.289Z,376.88
2018-06-28T10:18:45.323Z,371.25
2018-06-28T10:19:45.356Z,455.63
2018-06-28T10:20:45.386Z,781.88
2018-06-28T10:21:45.420Z,765.00
2018-06-28T10:22:45.451Z,776.25
2018-06-28T10:23:45.486Z,787.50
2018-06-28T10:24:45.522Z,765.00
2018-06-28T10:25:45.549Z,776.25
2018-06-28T10:26:45.594Z,635.63
2018-06-28T10:27:45.621Z,815.63
2018-06-28T10:28:45.647Z,500.63
2018-06-28T10:29:45.683Z,815.63
2018-06-28T10:30:45.713Z,781.88
2018-06-28T10:31:45.745Z,776.25
2018-06-28T10:32:45.784Z,753.75
2018-06-28T10:33:45.809Z,753.75
2018-06-28T10:34:45.843Z,748.13
2018-06-28T10:35:45.873Z,753.75
2018-06-28T10:36:45.905Z,748.13
2018-06-28T10:37:45.937Z,708.75
2018-06-28T10:38:45.969Z,742.50
2018-06-28T10:39:46.005Z,742.50
2018-06-28T10:40:46.035Z,736.88
2018-06-28T10:41:46.069Z,736.88
2018-06-28T10:42:46.102Z,748.13
2018-06-28T10:43:46.133Z,753.75
2018-06-28T10:44:46.163Z,770.63
2018-06-28T10:45:46.196Z,793.13
2018-06-28T10:46:46.229Z,810.00
2018-06-28T10:47:46.263Z,826.88
2018-06-28T10:48:46.299Z,838.13
2018-06-28T10:49:46.325Z,860.63
2018-06-28T10:50:46.359Z,877.50
2018-06-28T10:51:46.389Z,894.38
2018-06-28T10:52:46.425Z,905.63
2018-06-28T10:53:46.459Z,748.13
2018-06-28T10:54:46.487Z,995.63
2018-06-28T10:55:46.519Z,1074.38
2018-06-28T10:56:46.554Z,1136.25
2018-06-28T10:57:46.592Z,1203.75
2018-06-28T10:58:46.617Z,1344.38
2018-06-28T10:59:46.652Z,1445.63
2018-06-28T11:00:46.686Z,1485.00
2018-06-28T11:01:46.782Z,1496.25
2018-06-28T11:02:46.751Z,1456.88
2018-06-28T11:03:46.781Z,1372.50
2018-06-28T11:04:46.816Z,1310.63
2018-06-28T11:05:46.850Z,1226.25
2018-06-28T11:06:46.879Z,1198.13
2018-06-28T11:07:46.918Z,1170.00
2018-06-28T11:08:46.949Z,1113.75
2018-06-28T11:09:46.977Z,1170.00
2018-06-28T11:10:47.016Z,1215.00
2018-06-28T11:11:47.047Z,1141.88
2018-06-28T11:12:47.076Z,1057.50
2018-06-28T11:13:47.110Z,1023.75
2018-06-28T11:14:47.143Z,1023.75
2018-06-28T11:15:47.245Z,348.75
2018-06-28T11:16:47.210Z,382.50
2018-06-28T11:17:47.242Z,933.75
2018-06-28T11:18:47.275Z,939.38
2018-06-28T11:19:47.306Z,922.50
2018-06-28T11:20:47.340Z,945.00
2018-06-28T11:21:47.370Z,945.00
2018-06-28T11:22:47.402Z,961.88
2018-06-28T11:23:47.438Z,978.75
2018-06-28T11:24:47.474Z,973.13
2018-06-28T11:25:47.500Z,978.75
2018-06-28T11:26:47.534Z,770.63
2018-06-28T11:27:47.568Z,900.00
2018-06-28T11:28:47.598Z,888.75
2018-06-28T11:29:47.658Z,416.25
2018-06-28T11:30:47.663Z,832.50
2018-06-28T11:31:47.697Z,832.50
2018-06-28T11:32:47.730Z,843.75
2018-06-28T11:33:47.760Z,871.88
2018-06-28T11:34:47.795Z,855.00
2018-06-28T11:35:47.825Z,832.50
2018-06-28T11:36:47.856Z,798.75
2018-06-28T11:37:47.889Z,770.63
2018-06-28T11:38:47.922Z,753.75
2018-06-28T11:39:47.953Z,742.50
2018-06-28T11:40:47.987Z,742.50
2018-06-28T11:41:48.018Z,736.88
2018-06-28T11:42:48.053Z,748.13
2018-06-28T11:43:48.080Z,433.13
2018-06-28T11:44:48.113Z,388.13
2018-06-28T11:45:48.150Z,601.88
2018-06-28T11:46:48.177Z,748.13
2018-06-28T11:47:48.210Z,748.13
2018-06-28T11:48:48.242Z,736.88
2018-06-28T11:49:48.278Z,725.63
2018-06-28T11:50:48.306Z,736.88
2018-06-28T11:51:48.342Z,315.00
2018-06-28T11:52:48.373Z,562.50
2018-06-28T11:53:48.405Z,725.63
2018-06-28T11:54:48.439Z,793.13
2018-06-28T11:55:48.470Z,826.88
2018-06-28T11:56:48.506Z,804.38
2018-06-28T11:57:48.531Z,776.25
2018-06-28T11:58:48.570Z,759.38
2018-06-28T11:59:48.598Z,736.88
2018-06-28T12:00:48.628Z,736.88
2018-06-28T12:01:48.661Z,720.00
2018-06-28T12:02:48.695Z,714.38
2018-06-28T12:03:48.727Z,708.75
2018-06-28T12:04:48.758Z,697.50
2018-06-28T12:05:48.792Z,691.88
2018-06-28T12:06:48.820Z,691.88
2018-06-28T12:07:48.853Z,691.88
2018-06-28T12:08:48.887Z,691.88
2018-06-28T12:09:48.916Z,680.63
2018-06-28T12:10:48.951Z,669.38
2018-06-28T12:11:48.981Z,675.00
2018-06-28T12:12:49.011Z,686.25
2018-06-28T12:13:49.042Z,720.00
2018-06-28T12:14:49.075Z,725.63
2018-06-28T12:15:49.107Z,731.25
2018-06-28T12:16:49.141Z,748.13
2018-06-28T12:17:49.173Z,759.38
2018-06-28T12:18:49.202Z,793.13
2018-06-28T12:19:49.236Z,815.63
2018-06-28T12:20:49.268Z,815.63
2018-06-28T12:21:49.299Z,787.50
2018-06-28T12:22:49.331Z,765.00
2018-06-28T12:23:49.363Z,753.75
2018-06-28T12:24:49.395Z,708.75
2018-06-28T12:25:49.426Z,630.00
2018-06-28T12:26:49.458Z,540.00
2018-06-28T12:27:49.490Z,472.50
2018-06-28T12:28:49.517Z,433.13
2018-06-28T12:29:49.551Z,416.25
2018-06-28T12:30:49.579Z,399.38
2018-06-28T12:31:49.614Z,388.13
2018-06-28T12:32:49.644Z,382.50
2018-06-28T12:33:49.679Z,371.25
2018-06-28T12:34:49.707Z,360.00
2018-06-28T12:35:49.737Z,360.00
2018-06-28T12:36:49.766Z,348.75
2018-06-28T12:37:49.795Z,275.63
2018-06-28T12:38:49.827Z,275.63
2018-06-28T12:39:49.858Z,343.13
2018-06-28T12:40:49.886Z,354.38